Latest Weather Observations for Port Kembla Harbour

IDN60801

Issued at 11:04 am EST Tuesday 21 April 2015 (issued every 30 minutes, with the page automatically refreshed every 10 minutes)

About weather observations | Map of weather stations | Latest weather observations for NSW | Other Formats
Station Details ID: 068253 Name: PORT KEMBLA NTC AWS Lat: -34.47 Lon: 150.91 Height: 0.0 m
Data from the previous 72 hours. | See also: Recent months for locations in New South Wales
Date/Time
EST
Temp
°C
App
Temp
°C
Dew
Point
Rel
Hum
%
Delta-T
°C
Wind Press
QNH
hPa
Press
MSL
hPa
Rain
since 9 am
mm
Dir
 
Spd
km/h
Gust
km/h
Spd
kts
Gust
kts
21/11:00am 15.9 - - - - S 26 48 14 26 1021.9 1021.9 -
21/10:30am 16.3 - - - - S 28 50 15 27 1021.8 1021.8 -
21/10:00am 16.2 - - - - S 30 48 16 26 1022.1 1022.1 -
21/09:36am 16.3 - - - - S 28 50 15 27 1022.1 1022.1 -
21/09:30am 16.4 - - - - S 26 50 14 27 1021.8 1021.8 -
21/09:02am 16.6 - - - - S 28 48 15 26 1022.2 1022.2 -
21/09:00am 16.5 - - - - S 26 48 14 26 1022.1 1022.1 -
21/08:49am 16.3 - - - - S 28 48 15 26 1022.4 1022.4 -
21/08:30am 16.4 - - - - S 24 50 13 27 1022.5 1022.5 -
21/08:05am 16.5 - - - - S 28 50 15 27 1022.2 1022.2 -
21/08:00am 16.7 - - - - S 26 50 14 27 1022.1 1022.1 -
21/07:30am 16.9 - - - - S 28 50 15 27 1021.8 1021.8 -
21/07:01am 16.2 - - - - S 28 50 15 27 1021.8 1021.8 -
21/07:00am 16.4 - - - - S 26 50 14 27 1021.9 1021.9 -
21/06:40am 17.0 - - - - S 28 50 15 27 1021.7 1021.7 -
21/06:30am 17.0 - - - - S 24 44 13 24 1021.6 1021.6 -
21/06:08am 16.7 - - - - S 28 48 15 26 1021.9 1021.9 -
21/06:00am 16.7 - - - - S 22 44 12 24 1021.9 1021.9 -
21/05:31am 16.3 - - - - SSE 28 48 15 26 1022.1 1022.1 -
21/05:30am 16.3 - - - - SSE 26 48 14 26 1022.1 1022.1 -
21/05:01am 17.3 - - - - S 28 50 15 27 1021.9 1021.9 -
21/05:00am 17.2 - - - - S 26 50 14 27 1021.9 1021.9 -
21/04:30am 16.8 - - - - S 28 50 15 27 1021.8 1021.8 -
21/04:00am 16.0 - - - - SSE 32 50 17 27 1022.0 1022.0 -
21/03:30am 16.6 - - - - SSE 30 50 16 27 1022.0 1022.0 -
21/03:00am 17.2 - - - - SSE 30 50 16 27 1022.1 1022.1 -
21/02:30am 17.1 - - - - SSE 30 50 16 27 1022.2 1022.2 -
21/02:00am 16.7 - - - - SSE 32 50 17 27 1022.5 1022.5 -
21/01:30am 18.0 - - - - SSE 32 50 17 27 1022.8 1022.8 -
21/01:00am 18.0 - - - - SSE 30 50 16 27 1023.0 1023.0 -
21/12:30am 17.9 - - - - SSE 28 46 15 25 1023.2 1023.2 -
21/12:00am 17.7 - - - - SSE 30 50 16 27 1023.3 1023.3 -
 
Date/Time
EST
Temp
°C
App
Temp
°C
Dew
Point
Rel
Hum
%
Delta-T
°C
Wind Press
QNH
hPa
Press
MSL
hPa
Rain
since 9 am
mm
Dir
 
Spd
km/h
Gust
km/h
Spd
kts
Gust
kts
20/11:30pm 16.6 - - - - SSE 30 50 16 27 1023.8 1023.8 -
20/11:00pm 16.4 - - - - S 28 50 15 27 1023.9 1023.9 -
20/10:45pm 17.6 - - - - S 28 50 15 27 1023.9 1023.9 -
20/10:30pm 16.9 - - - - S 20 48 11 26 1023.9 1023.9 -
20/10:00pm 15.6 - - - - S 28 50 15 27 1024.4 1024.4 -
20/09:30pm 16.9 - - - - SSE 30 50 16 27 1024.6 1024.6 -
20/09:00pm 16.7 - - - - SSE 28 50 15 27 1024.6 1024.6 -
20/08:30pm 15.4 - - - - SSE 28 50 15 27 1024.5 1024.5 -
20/08:00pm 17.1 - - - - S 32 50 17 27 1024.0 1024.0 -
20/07:43pm 16.6 - - - - SSE 32 50 17 27 1023.9 1023.9 -
20/07:30pm 16.4 - - - - SSE 33 50 18 27 1024.0 1024.0 -
20/07:00pm 15.9 - - - - S 30 50 16 27 1023.9 1023.9 -
20/06:30pm 16.5 - - - - S 30 50 16 27 1023.7 1023.7 -
20/06:00pm 17.1 - - - - S 28 50 15 27 1023.4 1023.4 -
20/05:51pm 16.6 - - - - SSE 32 50 17 27 1023.3 1023.3 -
20/05:30pm 16.7 - - - - SSE 33 50 18 27 1023.1 1023.1 -
20/05:00pm 15.5 - - - - S 30 50 16 27 1023.3 1023.3 -
20/04:33pm 15.4 - - - - S 28 50 15 27 1023.5 1023.5 -
20/04:30pm 15.8 - - - - S 26 50 14 27 1023.4 1023.4 -
20/04:00pm 15.9 - - - - S 32 50 17 27 1023.5 1023.5 -
20/03:35pm 15.8 - - - - S 32 50 17 27 1023.2 1023.2 -
20/03:30pm 15.8 - - - - S 33 50 18 27 1023.1 1023.1 -
20/03:00pm 16.5 - - - - SSE 30 48 16 26 1023.0 1023.0 -
20/02:30pm 15.3 - - - - SSE 32 50 17 27 1022.8 1022.8 -
20/02:11pm 15.8 - - - - S 28 50 15 27 1022.7 1022.7 -
20/02:00pm 16.2 - - - - S 26 48 14 26 1022.7 1022.7 -
20/01:34pm 16.2 - - - - S 28 48 15 26 1022.3 1022.3 -
20/01:30pm 16.1 - - - - S 26 48 14 26 1022.4 1022.4 -
20/01:18pm 16.3 - - - - S 28 48 15 26 1022.9 1022.9 -
20/01:00pm 15.4 - - - - S 22 46 12 25 1023.3 1023.3 -
20/12:30pm 16.3 - - - - S 20 43 11 23 1024.0 1024.0 -
20/12:00pm 16.3 - - - - S 26 50 14 27 1023.9 1023.9 -
20/11:38am 15.6 - - - - SSW 28 48 15 26 1024.4 1024.4 -
20/11:30am 16.5 - - - - S 20 39 11 21 1024.3 1024.3 -
20/11:00am 16.2 - - - - S 22 48 12 26 1024.7 1024.7 -
20/10:30am 15.7 - - - - S 22 41 12 22 1024.9 1024.9 -
20/10:12am 15.6 - - - - S 24 46 13 25 1025.0 1025.0 -
20/10:00am 14.9 - - - - SSW 22 41 12 22 1024.7 1024.7 -
20/09:30am 14.4 - - - - SSW 19 35 10 19 1025.4 1025.4 -
20/09:00am 13.7 - - - - SW 24 50 13 27 1025.5 1025.5 -
20/08:30am 13.7 - - - - SW 24 39 13 21 1025.4 1025.4 -
20/08:00am 13.3 - - - - SW 24 35 13 19 1025.5 1025.5 -
20/07:30am 13.1 - - - - WSW 26 39 14 21 1025.2 1025.2 -
20/07:00am 12.7 - - - - SW 24 33 13 18 1025.1 1025.1 -
20/06:30am 13.0 - - - - SW 22 37 12 20 1024.5 1024.5 -
20/06:10am 12.4 - - - - SW 28 46 15 25 1024.6 1024.6 -
20/06:00am 12.7 - - - - SW 22 44 12 24 1024.6 1024.6 -
20/05:30am 12.5 - - - - SW 24 39 13 21 1024.7 1024.7 -
20/05:00am 12.4 - - - - SW 26 39 14 21 1024.4 1024.4 -
20/04:30am 12.3 - - - - SW 24 35 13 19 1024.4 1024.4 -
20/04:00am 12.1 - - - - SW 28 43 15 23 1024.3 1024.3 -
20/03:30am 12.1 - - - - SW 20 35 11 19 1024.2 1024.2 -
20/03:00am 12.4 - - - - SW 26 39 14 21 1024.8 1024.8 -
20/02:30am 11.4 - - - - SW 24 43 13 23 1024.2 1024.2 -
20/02:00am 12.9 - - - - WSW 26 37 14 20 1024.7 1024.7 -
20/01:50am 13.0 - - - - WSW 28 46 15 25 1024.9 1024.9 -
20/01:30am 13.1 - - - - WSW 24 35 13 19 1025.1 1025.1 -
20/01:10am 13.1 - - - - WSW 30 48 16 26 1024.9 1024.9 -
20/01:00am 13.3 - - - - SW 24 41 13 22 1025.0 1025.0 -
20/12:30am 13.1 - - - - SW 26 39 14 21 1025.6 1025.6 -
20/12:00am 13.1 - - - - SW 24 35 13 19 1025.8 1025.8 -
 
Date/Time
EST
Temp
°C
App
Temp
°C
Dew
Point
Rel
Hum
%
Delta-T
°C
Wind Press
QNH
hPa
Press
MSL
hPa
Rain
since 9 am
mm
Dir
 
Spd
km/h
Gust
km/h
Spd
kts
Gust
kts
19/11:30pm 13.5 - - - - SW 22 32 12 17 1025.4 1025.4 -
19/11:00pm 13.2 - - - - SW 20 32 11 17 1025.5 1025.5 -
19/10:30pm 13.2 - - - - SW 22 37 12 20 1025.9 1025.9 -
19/10:00pm 13.2 - - - - SW 20 32 11 17 1025.8 1025.8 -
19/09:30pm 13.9 - - - - SW 19 32 10 17 1025.5 1025.5 -
19/09:00pm 14.2 - - - - SW 17 26 9 14 1025.4 1025.4 -
19/08:30pm 14.0 - - - - SW 20 28 11 15 1024.8 1024.8 -
19/08:00pm 14.2 - - - - WSW 24 33 13 18 1024.5 1024.5 -
19/07:30pm 13.7 - - - - WSW 20 33 11 18 1024.3 1024.3 -
19/07:00pm 14.1 - - - - WSW 22 39 12 21 1024.0 1024.0 -
19/06:30pm 14.1 - - - - SW 20 37 11 20 1023.6 1023.6 -
19/06:00pm 14.4 - - - - SW 20 32 11 17 1023.2 1023.2 -
19/05:30pm 14.6 - - - - SW 24 43 13 23 1022.9 1022.9 -
19/05:00pm 15.1 - - - - SW 24 35 13 19 1022.5 1022.5 -
19/04:30pm 15.8 - - - - SSW 20 33 11 18 1021.4 1021.4 -
19/04:00pm 16.4 - - - - SSW 22 43 12 23 1021.1 1021.1 -
19/03:30pm 16.9 - - - - SSW 20 41 11 22 1020.7 1020.7 -
19/03:00pm 17.9 - - - - SSW 20 37 11 20 1020.3 1020.3 -
19/02:30pm 17.1 - - - - SSW 19 32 10 17 1020.1 1020.1 -
19/02:00pm 17.3 - - - - SSW 19 30 10 16 1020.0 1020.0 -
19/01:30pm 17.0 - - - - SSW 15 24 8 13 1019.8 1019.8 -
19/01:00pm 16.2 - - - - SW 20 33 11 18 1019.9 1019.9 -
19/12:30pm 17.1 - - - - SSW 20 35 11 19 1019.9 1019.9 -
19/12:00pm 17.3 - - - - SSW 19 35 10 19 1019.6 1019.6 -
19/11:30am 18.4 - - - - SSW 17 30 9 16 1019.5 1019.5 -
19/11:00am 18.6 - - - - SSW 19 33 10 18 1019.3 1019.3 -
19/10:30am 19.6 - - - - S 11 28 6 15 1018.8 1018.8 -
19/10:00am 19.8 - - - - WSW 19 28 10 15 1018.3 1018.3 -
19/09:30am 19.6 - - - - WSW 20 30 11 16 1018.2 1018.2 -
19/09:00am 19.4 - - - - WSW 20 28 11 15 1017.9 1017.9 -
19/08:30am 18.9 - - - - WSW 26 35 14 19 1017.5 1017.5 -
19/08:00am 18.4 - - - - WSW 19 30 10 16 1017.2 1017.2 -
19/07:30am 18.0 - - - - W 20 26 11 14 1016.5 1016.5 -
19/07:00am 17.4 - - - - WSW 17 22 9 12 1015.9 1015.9 -
19/06:30am 18.9 - - - - W 19 24 10 13 1015.1 1015.1 -
19/06:00am 19.3 - - - - W 20 26 11 14 1014.6 1014.6 -
19/05:30am 19.3 - - - - W 20 26 11 14 1014.2 1014.2 -
19/05:00am 19.8 - - - - W 13 19 7 10 1013.9 1013.9 -
19/04:30am 19.9 - - - - WSW 7 13 4 7 1013.5 1013.5 -
19/04:00am 20.4 - - - - WSW 6 9 3 5 1013.3 1013.3 -
19/03:30am 20.7 - - - - SW 9 20 5 11 1013.2 1013.2 -
19/03:00am 20.4 - - - - SE 4 9 2 5 1012.7 1012.7 -
19/02:30am 20.1 - - - - N 6 13 3 7 1012.7 1012.7 -
19/02:00am 19.9 - - - - NNE 13 19 7 10 1012.8 1012.8 -
19/01:30am 19.7 - - - - NNE 9 13 5 7 1013.0 1013.0 -
19/01:00am 19.7 - - - - NNW 13 20 7 11 1013.3 1013.3 -
19/12:30am 19.7 - - - - NNW 11 15 6 8 1013.4 1013.4 -
19/12:00am 19.9 - - - - N 7 13 4 7 1013.4 1013.4 -
 
Date/Time
EST
Temp
°C
App
Temp
°C
Dew
Point
Rel
Hum
%
Delta-T
°C
Wind Press
QNH
hPa
Press
MSL
hPa
Rain
since 9 am
mm
Dir
 
Spd
km/h
Gust
km/h
Spd
kts
Gust
kts
18/11:30pm 20.3 - - - - NNE 9 13 5 7 1013.4 1013.4 -
18/11:00pm 20.1 - - - - N 17 24 9 13 1013.2 1013.2 -
18/10:30pm 20.3 - - - - N 11 17 6 9 1014.0 1014.0 -
18/10:00pm 20.8 - - - - N 9 13 5 7 1013.7 1013.7 -
18/09:30pm 20.6 - - - - NNE 7 13 4 7 1013.7 1013.7 -

Other Formats:

Comma delimited format used in spreadsheet applications
http://www.bom.gov.au/fwo/IDN60801/IDN60801.95745.axf

JavaScript Object Notation format (JSON) in row-major order
http://www.bom.gov.au/fwo/IDN60801/IDN60801.95745.json